EDT,Max TemperatureF,Mean TemperatureF,Min TemperatureF,Max Dew PointF,MeanDew PointF,Min DewpointF,Max Humidity, Mean Humidity, Min Humidity, Max Sea Level PressureIn, Mean Sea Level PressureIn, Min Sea Level PressureIn, Max VisibilityMiles, Mean VisibilityMiles, Min VisibilityMiles, Max Wind SpeedMPH, Mean Wind SpeedMPH, Max Gust SpeedMPH,PrecipitationIn, CloudCover, Events, WindDirDegrees
2011-10-1,63,56,48,43,35,28,61,46,31,30.04,29.95,29.86,10,10,10,18,9,28,0.00,0,,338
2011-10-2,67,55,42,41,35,29,89,57,24,30.07,30.02,29.98,10,10,10,16,6,22,0.00,0,,335
2011-10-3,73,57,41,44,37,30,79,53,27,30.18,30.11,30.06,10,10,10,10,4,14,0.00,0,,316
2011-10-4,78,62,46,52,45,41,86,59,32,30.26,30.19,30.14,10,10,10,12,2,16,0.00,0,,36
2011-10-5,80,66,52,54,51,47,89,62,35,30.27,30.21,30.15,10,10,10,7,2,9,0.00,0,,61
2011-10-6,77,67,57,53,52,50,86,64,41,30.34,30.27,30.20,10,10,10,14,5,18,0.00,0,,43
2011-10-7,75,65,54,53,51,49,93,67,41,30.41,30.36,30.32,10,10,10,13,6,18,0.00,0,,39
2011-10-8,74,63,52,52,48,45,83,61,38,30.47,30.40,30.34,10,10,10,15,8,20,0.00,0,,36
2011-10-9,74,66,58,56,52,48,72,61,49,30.37,30.31,30.23,10,10,10,18,10,24,0.00,4,,35
2011-10-10,69,66,62,57,54,51,84,74,63,30.23,30.14,30.05,10,10,10,17,12,23,0.03,6,Rain,36
2011-10-11,63,60,57,59,57,54,100,92,84,30.05,29.99,29.91,10,5,2,21,13,26,0.50,8,Rain,29
2011-10-12,76,67,58,65,60,55,93,79,64,29.89,29.82,29.74,10,10,10,13,6,17,0.10,7,Rain,71
2011-10-13,74,67,59,65,62,51,93,77,61,29.79,29.68,29.56,10,7,1,21,9,25,0.26,7,Rain,216
2011-10-14,76,65,53,56,47,34,100,61,21,29.86,29.73,29.61,10,10,4,22,9,30,T,0,Rain,254
2011-10-15,77,64,51,47,41,30,83,54,24,30.06,29.95,29.88,10,10,10,21,7,28,0.00,0,,248
2011-10-16,82,64,45,46,41,36,83,53,22,30.13,30.05,29.98,10,10,10,20,6,26,0.00,0,,225
2011-10-17,83,69,54,53,50,46,72,53,34,29.99,29.91,29.84,10,10,10,16,9,21,0.00,0,,221
2011-10-18,81,68,54,65,58,51,100,71,42,29.83,29.74,29.61,10,8,2,14,6,18,0.37,4,Rain,158
2011-10-19,66,56,46,64,56,39,100,83,66,29.62,29.45,29.31,10,6,1,28,11,38,0.36,7,Rain,50
2011-10-20,58,50,42,40,39,37,89,70,51,29.98,29.78,29.59,10,10,10,24,12,30,0.00,0,,238
2011-10-21,64,50,36,42,38,35,100,68,36,30.09,30.05,29.99,10,10,9,9,2,12,0.00,0,,238
2011-10-22,66,53,39,43,39,36,92,66,40,30.16,30.10,30.06,10,10,10,10,3,13,0.00,0,,50
2011-10-23,69,54,39,47,43,38,93,65,37,30.14,30.09,30.03,10,10,7,12,1,15,0.00,0,,150
2011-10-24,74,62,49,49,46,43,89,62,35,30.13,30.08,30.04,10,10,10,10,2,14,0.00,1,,211
2011-10-25,75,63,51,48,46,44,77,56,35,30.25,30.17,30.14,10,10,10,10,4,16,0.00,0,,136
2011-10-26,76,62,47,51,47,44,93,63,33,30.14,30.03,29.93,10,10,8,18,7,25,0.00,0,,219
2011-10-27,77,64,50,54,50,46,83,63,43,29.92,29.85,29.78,10,10,10,21,8,29,0.00,1,,232
2011-10-28,63,53,42,53,45,39,89,77,64,30.06,29.99,29.88,10,10,7,17,11,26,0.17,8,Rain,39
2011-10-29,56,47,37,42,35,27,93,64,35,30.16,30.01,29.95,10,10,5,18,7,31,0.20,4,Rain,3
2011-10-30,60,46,32,37,31,25,92,60,28,30.30,30.25,30.17,10,10,10,10,2,13,0.00,0,,126
2011-10-31,60,48,35,38,34,31,85,59,33,30.28,30.23,30.15,10,10,10,8,3,10,0.00,0,,41